Time;durP1;ratioP1;P1;durP2;ratioP2;P2;SDS_P1;SDS_P2;PMS_P1;PMS_P2;Temp;Humidity;BMP_temperature;BMP_pressure;BME280_temperature;BME280_humidity;BME280_pressure;Samples;Min_cycle;Max_cycle;Signal;HPM_P1;HPM_P2
2021/05/09 00:01:05;;;;;;;1.85;1.30;;;;;;;;;;5100279;28;20032;-81
2021/05/09 00:03:31;;;;;;;2.35;2.00;;;;;;;;;;5099455;28;20044;-81
2021/05/09 00:05:57;;;;;;;1.77;1.55;;;;;;;;;;5098715;28;20040;-81
2021/05/09 00:08:22;;;;;;;3.33;1.88;;;;;;;;;;5092356;28;20066;-81
2021/05/09 00:10:48;;;;;;;2.33;1.67;;;;;;;;;;5078227;28;20040;-81
2021/05/09 00:13:13;;;;;;;2.90;1.85;;;;;;;;;;5079406;28;20025;-81
2021/05/09 00:15:39;;;;;;;2.13;1.67;;;;;;;;;;5079666;28;20060;-81
2021/05/09 00:18:05;;;;;;;2.42;1.80;;;;;;;;;;5078327;28;20398;-82
2021/05/09 00:20:31;;;;;;;4.10;1.95;;;;;;;;;;5097615;28;20019;-81
2021/05/09 00:22:57;;;;;;;3.13;2.08;;;;;;;;;;5098191;28;20031;-81
2021/05/09 00:25:22;;;;;;;4.93;2.20;;;;;;;;;;5098244;28;20405;-82
2021/05/09 00:27:47;;;;;;;3.40;2.30;;;;;;;;;;5098817;28;20036;-81
2021/05/09 00:30:15;;;;;;;3.00;2.03;;;;;;;;;;5098874;28;20118;-81
2021/05/09 00:32:43;;;;;;;3.92;2.03;;;;;;;;;;5098794;28;20114;-82
2021/05/09 00:35:09;;;;;;;2.45;2.05;;;;;;;;;;5098395;28;20042;-81
2021/05/09 00:37:34;;;;;;;1.75;1.55;;;;;;;;;;5096880;28;20036;-82
2021/05/09 00:40:00;;;;;;;2.67;1.80;;;;;;;;;;5096853;28;20067;-81
2021/05/09 00:42:25;;;;;;;2.78;1.73;;;;;;;;;;5096839;28;20094;-81
2021/05/09 00:44:51;;;;;;;2.65;1.95;;;;;;;;;;5100240;28;20039;-82
2021/05/09 00:47:17;;;;;;;3.95;2.00;;;;;;;;;;5102367;28;20032;-82
2021/05/09 00:49:42;;;;;;;2.15;1.80;;;;;;;;;;5103794;28;20115;-82
2021/05/09 00:52:10;;;;;;;2.25;1.73;;;;;;;;;;5103718;28;20035;-83
2021/05/09 00:54:39;;;;;;;3.30;1.50;;;;;;;;;;5103433;28;20047;-83
2021/05/09 00:57:06;;;;;;;4.32;1.88;;;;;;;;;;5100164;28;20103;-82
2021/05/09 00:59:36;;;;;;;2.58;1.50;;;;;;;;;;5101278;28;20489;-82
2021/05/09 01:02:01;;;;;;;3.13;2.20;;;;;;;;;;5101650;28;20028;-83
2021/05/09 01:04:27;;;;;;;4.85;2.40;;;;;;;;;;5099399;28;20032;-82
2021/05/09 01:06:53;;;;;;;6.10;1.80;;;;;;;;;;5101182;28;20115;-82
2021/05/09 01:09:19;;;;;;;2.45;1.80;;;;;;;;;;5082762;28;20116;-82
2021/05/09 01:11:45;;;;;;;2.42;1.60;;;;;;;;;;5101020;28;20566;-82
2021/05/09 01:14:11;;;;;;;1.50;1.40;;;;;;;;;;5097971;28;20048;-82
2021/05/09 01:16:37;;;;;;;2.95;1.50;;;;;;;;;;5099653;28;20081;-82
2021/05/09 01:19:03;;;;;;;3.88;1.85;;;;;;;;;;5099223;28;20580;-82
2021/05/09 01:21:29;;;;;;;2.63;1.75;;;;;;;;;;5099094;28;20055;-83
2021/05/09 01:23:54;;;;;;;3.20;2.08;;;;;;;;;;5098584;28;20036;-82
2021/05/09 01:26:20;;;;;;;4.75;2.05;;;;;;;;;;5099861;28;20550;-82
2021/05/09 01:28:45;;;;;;;3.00;2.00;;;;;;;;;;5083024;28;20029;-82
2021/05/09 01:31:11;;;;;;;2.60;1.63;;;;;;;;;;5079325;28;20048;-82
2021/05/09 01:33:37;;;;;;;2.35;1.77;;;;;;;;;;5078144;28;20032;-82
2021/05/09 01:36:03;;;;;;;7.68;2.03;;;;;;;;;;5059997;28;20037;-82
2021/05/09 01:38:29;;;;;;;4.75;2.05;;;;;;;;;;5078734;28;20032;-81
2021/05/09 01:40:55;;;;;;;2.63;2.08;;;;;;;;;;5099629;28;20466;-82
2021/05/09 01:43:20;;;;;;;3.55;2.25;;;;;;;;;;5099879;28;20036;-82
2021/05/09 01:45:47;;;;;;;2.13;1.75;;;;;;;;;;5082116;28;20129;-82
2021/05/09 01:48:13;;;;;;;2.17;1.63;;;;;;;;;;5099101;28;20035;-82
2021/05/09 01:50:39;;;;;;;6.13;2.00;;;;;;;;;;5101030;28;20504;-82
2021/05/09 01:53:05;;;;;;;2.72;1.70;;;;;;;;;;5100376;28;20038;-82
2021/05/09 01:55:31;;;;;;;4.15;1.70;;;;;;;;;;5100251;28;20088;-82
2021/05/09 01:58:11;;;;;;;2.92;1.83;;;;;;;;;;5098822;28;20386;-82
2021/05/09 02:00:49;;;;;;;3.35;1.80;;;;;;;;;;5072074;28;20836;-82
2021/05/09 02:03:26;;;;;;;4.28;1.70;;;;;;;;;;5074044;28;20058;-82
2021/05/09 02:05:51;;;;;;;2.17;1.73;;;;;;;;;;5058575;28;20542;-82
2021/05/09 02:08:18;;;;;;;5.60;2.10;;;;;;;;;;5074050;28;20043;-81
2021/05/09 02:10:50;;;;;;;3.35;2.20;;;;;;;;;;5059027;28;20033;-81
2021/05/09 02:13:16;;;;;;;2.55;2.00;;;;;;;;;;5058333;28;20028;-81
2021/05/09 02:15:51;;;;;;;3.97;2.03;;;;;;;;;;5081070;28;20091;-81
2021/05/09 02:18:17;;;;;;;3.83;2.00;;;;;;;;;;5097506;28;20066;-82
2021/05/09 02:20:46;;;;;;;3.67;1.92;;;;;;;;;;5099649;28;20036;-82
2021/05/09 02:23:12;;;;;;;2.78;1.77;;;;;;;;;;5099197;28;20404;-81
2021/05/09 02:25:37;;;;;;;6.22;2.00;;;;;;;;;;5079951;28;20034;-82
2021/05/09 02:28:07;;;;;;;3.72;2.05;;;;;;;;;;5098309;28;20076;-82
2021/05/09 02:30:33;;;;;;;2.53;2.00;;;;;;;;;;5096575;28;20071;-82
2021/05/09 02:32:59;;;;;;;3.28;2.08;;;;;;;;;;5098011;28;20495;-82
2021/05/09 02:35:25;;;;;;;4.07;2.05;;;;;;;;;;5080057;28;20028;-82
2021/05/09 02:37:51;;;;;;;2.97;1.95;;;;;;;;;;5097596;28;20095;-81
2021/05/09 02:40:17;;;;;;;2.85;2.00;;;;;;;;;;5095559;28;20032;-82
2021/05/09 02:42:44;;;;;;;3.15;1.95;;;;;;;;;;5097239;28;20051;-81
2021/05/09 02:45:13;;;;;;;2.83;1.90;;;;;;;;;;5095254;28;20033;-82
2021/05/09 02:47:38;;;;;;;3.65;2.17;;;;;;;;;;5095584;28;20066;-82
2021/05/09 02:50:10;;;;;;;4.15;2.03;;;;;;;;;;5096338;28;20028;-82
2021/05/09 02:52:38;;;;;;;2.10;1.60;;;;;;;;;;5097210;28;20052;-82
2021/05/09 02:55:05;;;;;;;2.13;1.70;;;;;;;;;;5096009;28;20032;-81
2021/05/09 02:57:31;;;;;;;3.15;1.70;;;;;;;;;;5095049;28;20024;-81
2021/05/09 02:59:57;;;;;;;3.63;2.15;;;;;;;;;;5097532;28;20031;-81
2021/05/09 03:02:22;;;;;;;2.13;1.95;;;;;;;;;;5093784;28;20040;-81
2021/05/09 03:04:49;;;;;;;1.70;1.60;;;;;;;;;;5093701;28;20043;-81
2021/05/09 03:07:15;;;;;;;4.45;1.95;;;;;;;;;;5096452;28;20103;-81
2021/05/09 03:09:41;;;;;;;2.67;1.75;;;;;;;;;;5084310;28;20036;-81
2021/05/09 03:12:07;;;;;;;1.92;1.70;;;;;;;;;;5076036;28;20078;-81
2021/05/09 03:14:33;;;;;;;5.65;2.00;;;;;;;;;;5077378;28;20078;-81
2021/05/09 03:16:58;;;;;;;4.43;2.38;;;;;;;;;;5075860;28;20453;-81
2021/05/09 03:19:24;;;;;;;2.75;2.05;;;;;;;;;;5077128;28;20044;-81
2021/05/09 03:21:49;;;;;;;2.53;1.88;;;;;;;;;;5077362;28;20218;-81
2021/05/09 03:24:15;;;;;;;2.63;1.70;;;;;;;;;;5076363;28;20697;-81
2021/05/09 03:26:40;;;;;;;3.13;1.70;;;;;;;;;;5075334;28;20025;-81
2021/05/09 03:29:06;;;;;;;2.50;1.98;;;;;;;;;;5072325;28;20146;-81
2021/05/09 03:31:32;;;;;;;2.28;1.70;;;;;;;;;;5073119;28;20036;-81
2021/05/09 03:33:58;;;;;;;2.40;1.70;;;;;;;;;;5072336;28;20595;-81
2021/05/09 03:36:23;;;;;;;2.90;1.63;;;;;;;;;;5076886;28;20092;-82
2021/05/09 03:38:49;;;;;;;1.70;1.55;;;;;;;;;;5079683;28;20570;-82
2021/05/09 03:41:14;;;;;;;2.28;1.80;;;;;;;;;;5080971;28;20028;-81
2021/05/09 03:43:40;;;;;;;4.28;1.58;;;;;;;;;;5081245;28;20068;-82
2021/05/09 03:46:05;;;;;;;2.55;1.92;;;;;;;;;;5081170;28;20028;-81
2021/05/09 03:48:31;;;;;;;3.20;1.75;;;;;;;;;;5080594;28;20044;-81
2021/05/09 03:50:56;;;;;;;1.92;1.60;;;;;;;;;;5079818;28;20100;-81
2021/05/09 03:53:22;;;;;;;3.13;2.00;;;;;;;;;;5082247;28;20017;-81
2021/05/09 03:55:47;;;;;;;2.95;1.90;;;;;;;;;;5082748;28;20033;-81
2021/05/09 03:58:12;;;;;;;2.28;1.75;;;;;;;;;;5064491;28;20123;-81
2021/05/09 04:00:38;;;;;;;4.28;1.80;;;;;;;;;;5082574;28;20402;-81
2021/05/09 04:03:21;;;;;;;3.35;2.00;;;;;;;;;;5080623;28;20043;-81
2021/05/09 04:05:48;;;;;;;2.90;1.80;;;;;;;;;;5081760;28;20477;-81
2021/05/09 04:08:13;;;;;;;3.30;2.08;;;;;;;;;;5080668;28;20055;-81
2021/05/09 04:10:39;;;;;;;4.22;2.53;;;;;;;;;;5099472;28;20036;-81
2021/05/09 04:13:04;;;;;;;3.45;1.77;;;;;;;;;;5101585;28;20036;-81
2021/05/09 04:15:30;;;;;;;1.65;1.55;;;;;;;;;;5103633;28;20024;-82
2021/05/09 04:17:55;;;;;;;4.78;2.05;;;;;;;;;;5105350;28;20039;-82
2021/05/09 04:20:21;;;;;;;2.65;1.80;;;;;;;;;;5102369;28;20050;-82
2021/05/09 04:22:46;;;;;;;2.33;1.42;;;;;;;;;;5103120;28;20040;-82
2021/05/09 04:25:11;;;;;;;1.60;1.42;;;;;;;;;;5101823;28;20040;-81
2021/05/09 04:27:37;;;;;;;2.17;1.70;;;;;;;;;;5102817;28;20028;-81
2021/05/09 04:30:02;;;;;;;6.65;1.88;;;;;;;;;;5103020;28;20393;-81
2021/05/09 04:32:28;;;;;;;4.82;1.98;;;;;;;;;;5101319;28;20028;-82
2021/05/09 04:34:54;;;;;;;2.90;1.88;;;;;;;;;;5102414;28;20055;-81
2021/05/09 04:37:19;;;;;;;5.10;2.22;;;;;;;;;;5100145;28;20039;-81
2021/05/09 04:39:44;;;;;;;3.63;1.90;;;;;;;;;;5099184;28;20035;-82
2021/05/09 04:42:10;;;;;;;2.63;1.77;;;;;;;;;;5079320;28;20517;-81
2021/05/09 04:44:35;;;;;;;2.63;1.80;;;;;;;;;;5081209;28;20052;-81
2021/05/09 04:47:01;;;;;;;2.70;1.92;;;;;;;;;;5080860;28;20498;-81
2021/05/09 04:49:27;;;;;;;2.95;1.90;;;;;;;;;;5080539;28;20166;-82
2021/05/09 04:51:52;;;;;;;3.08;1.70;;;;;;;;;;5080401;28;20032;-81
2021/05/09 04:54:18;;;;;;;2.65;1.80;;;;;;;;;;5081261;28;20393;-81
2021/05/09 04:56:43;;;;;;;3.42;2.53;;;;;;;;;;5081613;28;20028;-81
2021/05/09 04:59:08;;;;;;;2.67;1.95;;;;;;;;;;5082111;28;20043;-81
2021/05/09 05:01:34;;;;;;;3.88;2.20;;;;;;;;;;5081094;28;20036;-82
2021/05/09 05:03:59;;;;;;;3.22;2.30;;;;;;;;;;5080969;28;20498;-81
2021/05/09 05:06:24;;;;;;;19.50;6.85;;;;;;;;;;5079619;28;20032;-81
2021/05/09 05:08:50;;;;;;;14.20;8.00;;;;;;;;;;5081086;28;20036;-81
2021/05/09 05:11:15;;;;;;;14.90;7.47;;;;;;;;;;5084563;28;20406;-81
2021/05/09 05:13:41;;;;;;;10.23;7.05;;;;;;;;;;5101610;28;20651;-82
2021/05/09 05:16:07;;;;;;;10.70;6.93;;;;;;;;;;5100246;28;20032;-82
2021/05/09 05:18:35;;;;;;;10.18;6.43;;;;;;;;;;5099453;28;20035;-82
2021/05/09 05:21:03;;;;;;;11.63;6.20;;;;;;;;;;5099885;28;20036;-81
2021/05/09 05:23:32;;;;;;;8.73;5.10;;;;;;;;;;5098907;28;20060;-77
2021/05/09 05:25:58;;;;;;;8.50;5.13;;;;;;;;;;5096820;28;20043;-77
2021/05/09 05:28:24;;;;;;;5.78;4.15;;;;;;;;;;5099403;28;20032;-85
2021/05/09 05:30:51;;;;;;;7.35;4.25;;;;;;;;;;5080369;28;20028;-81
2021/05/09 05:33:32;;;;;;;8.50;4.22;;;;;;;;;;5097137;28;20559;-82
2021/05/09 05:35:58;;;;;;;6.43;3.92;;;;;;;;;;5100063;28;20036;-85
2021/05/09 05:38:24;;;;;;;7.22;3.88;;;;;;;;;;5096140;28;20566;-85
2021/05/09 05:40:54;;;;;;;5.65;3.65;;;;;;;;;;5080985;28;20032;-84
2021/05/09 05:43:20;;;;;;;4.13;2.97;;;;;;;;;;5079083;28;20406;-86
2021/05/09 05:45:46;;;;;;;4.15;3.10;;;;;;;;;;5054967;28;20128;-82
2021/05/09 05:48:11;;;;;;;5.80;3.38;;;;;;;;;;5079137;28;20063;-82
2021/05/09 05:50:38;;;;;;;4.25;2.55;;;;;;;;;;5094696;28;20036;-84
2021/05/09 05:53:04;;;;;;;4.88;3.28;;;;;;;;;;5077063;28;20020;-82
2021/05/09 05:55:29;;;;;;;6.07;3.63;;;;;;;;;;5078727;28;20067;-82
2021/05/09 05:57:54;;;;;;;5.22;3.70;;;;;;;;;;5078172;28;20120;-82
2021/05/09 06:00:20;;;;;;;6.00;3.08;;;;;;;;;;5081264;28;20044;-79
2021/05/09 06:02:46;;;;;;;5.32;3.60;;;;;;;;;;5082104;28;20131;-80
2021/05/09 06:05:13;;;;;;;7.40;3.58;;;;;;;;;;5082959;28;20079;-83
2021/05/09 06:07:38;;;;;;;5.45;2.92;;;;;;;;;;5080420;28;20090;-83
2021/05/09 06:10:04;;;;;;;4.68;2.90;;;;;;;;;;5078699;28;20036;-80
2021/05/09 06:12:29;;;;;;;3.45;2.70;;;;;;;;;;5075956;28;20036;-83
2021/05/09 06:14:55;;;;;;;5.05;2.85;;;;;;;;;;5075367;28;20075;-82
2021/05/09 06:17:20;;;;;;;4.38;3.17;;;;;;;;;;5076256;28;20036;-83
2021/05/09 06:19:45;;;;;;;5.38;3.13;;;;;;;;;;5076858;28;20040;-83
2021/05/09 06:22:11;;;;;;;4.63;3.30;;;;;;;;;;5079164;28;20048;-80
2021/05/09 06:24:37;;;;;;;5.90;3.45;;;;;;;;;;5096222;28;20133;-82
2021/05/09 06:27:04;;;;;;;5.25;3.22;;;;;;;;;;5078039;28;20493;-79
2021/05/09 06:29:29;;;;;;;6.75;3.72;;;;;;;;;;5096055;28;20115;-80
2021/05/09 06:31:54;;;;;;;8.88;2.90;;;;;;;;;;5094609;28;20055;-78
2021/05/09 06:34:21;;;;;;;6.03;3.95;;;;;;;;;;5097107;28;20032;-82
2021/05/09 06:36:46;;;;;;;7.97;3.30;;;;;;;;;;5096934;28;20038;-82
2021/05/09 06:39:12;;;;;;;7.03;3.40;;;;;;;;;;5096617;28;20406;-81
2021/05/09 06:41:38;;;;;;;6.22;2.65;;;;;;;;;;5095823;28;20413;-82
2021/05/09 06:44:07;;;;;;;4.72;3.13;;;;;;;;;;5096865;28;20051;-82
2021/05/09 06:46:32;;;;;;;3.60;2.80;;;;;;;;;;5097125;28;20035;-82
2021/05/09 06:48:58;;;;;;;5.25;2.38;;;;;;;;;;5097507;28;20043;-81
2021/05/09 06:51:24;;;;;;;3.60;2.60;;;;;;;;;;5095146;28;20036;-82
2021/05/09 06:53:49;;;;;;;8.30;2.55;;;;;;;;;;5094581;28;20028;-82
2021/05/09 06:56:15;;;;;;;3.55;2.28;;;;;;;;;;5095956;28;20393;-81
2021/05/09 06:58:41;;;;;;;2.25;1.75;;;;;;;;;;5096344;28;20040;-82
2021/05/09 07:01:07;;;;;;;5.10;2.50;;;;;;;;;;5102877;28;20070;-81
2021/05/09 07:03:32;;;;;;;5.43;3.28;;;;;;;;;;5102625;28;20032;-81
2021/05/09 07:05:58;;;;;;;5.75;2.60;;;;;;;;;;5100925;28;20024;-81
2021/05/09 07:08:24;;;;;;;2.45;1.92;;;;;;;;;;5100163;28;20059;-81
2021/05/09 07:10:50;;;;;;;4.30;1.85;;;;;;;;;;5099443;28;20035;-80
2021/05/09 07:13:15;;;;;;;3.55;2.13;;;;;;;;;;5098617;28;20020;-81
2021/05/09 07:15:42;;;;;;;2.30;1.50;;;;;;;;;;5098270;28;20531;-80
2021/05/09 07:18:18;;;;;;;3.65;1.95;;;;;;;;;;5081192;28;20036;-79
2021/05/09 07:20:45;;;;;;;3.13;1.67;;;;;;;;;;5073159;28;20123;-79
2021/05/09 07:23:13;;;;;;;3.05;1.75;;;;;;;;;;5064106;28;20033;-78
2021/05/09 07:25:39;;;;;;;2.75;1.80;;;;;;;;;;5093652;28;20096;-79
2021/05/09 07:28:12;;;;;;;52.58;35.40;;;;;;;;;;5102065;28;20040;-78
2021/05/09 07:30:39;;;;;;;8.25;5.95;;;;;;;;;;5109232;28;20032;-81
2021/05/09 07:33:07;;;;;;;3.42;2.53;;;;;;;;;;5104544;28;20032;-77
2021/05/09 07:35:32;;;;;;;2.75;1.95;;;;;;;;;;5098181;28;20036;-78
2021/05/09 07:38:05;;;;;;;3.75;1.90;;;;;;;;;;5097251;28;20085;-76
2021/05/09 07:40:31;;;;;;;5.28;1.90;;;;;;;;;;5095182;28;20092;-77
2021/05/09 07:42:57;;;;;;;3.25;1.52;;;;;;;;;;5097677;28;20172;-78
2021/05/09 07:45:23;;;;;;;3.15;1.20;;;;;;;;;;5098452;28;20122;-81
2021/05/09 07:47:49;;;;;;;1.33;1.20;;;;;;;;;;5081347;28;20032;-79
2021/05/09 07:50:16;;;;;;;1.20;1.10;;;;;;;;;;5078002;28;20036;-76
2021/05/09 07:52:46;;;;;;;6.10;1.45;;;;;;;;;;5075861;28;20036;-77
2021/05/09 07:55:13;;;;;;;3.50;1.35;;;;;;;;;;5075845;28;20131;-75
2021/05/09 07:57:42;;;;;;;5.45;1.40;;;;;;;;;;5083081;28;20481;-75
2021/05/09 08:00:15;;;;;;;3.53;1.20;;;;;;;;;;5096386;28;20488;-76
2021/05/09 08:02:42;;;;;;;1.90;1.25;;;;;;;;;;5096170;28;20032;-75
2021/05/09 08:05:08;;;;;;;6.00;1.30;;;;;;;;;;5096039;28;20056;-75
2021/05/09 08:07:34;;;;;;;1.92;1.05;;;;;;;;;;5095991;28;20097;-75
2021/05/09 08:09:59;;;;;;;2.50;1.25;;;;;;;;;;5095835;28;20466;-75
2021/05/09 08:12:25;;;;;;;1.92;1.20;;;;;;;;;;5094393;28;20024;-75
2021/05/09 08:14:50;;;;;;;2.17;1.20;;;;;;;;;;5095979;28;20078;-75
2021/05/09 08:17:16;;;;;;;2.03;1.13;;;;;;;;;;5094705;28;20036;-75
2021/05/09 08:19:42;;;;;;;4.57;1.13;;;;;;;;;;5095187;28;20079;-76
2021/05/09 08:22:07;;;;;;;1.75;0.90;;;;;;;;;;5093101;28;20386;-75
2021/05/09 08:24:33;;;;;;;3.25;1.20;;;;;;;;;;5095923;28;20546;-75
2021/05/09 08:26:58;;;;;;;1.42;0.90;;;;;;;;;;5095502;28;20028;-75
2021/05/09 08:29:24;;;;;;;1.33;0.85;;;;;;;;;;5094947;28;20497;-75
2021/05/09 08:31:50;;;;;;;8.80;1.30;;;;;;;;;;5095677;28;20160;-75
2021/05/09 08:34:15;;;;;;;5.45;0.90;;;;;;;;;;5095649;28;20040;-76
2021/05/09 08:36:41;;;;;;;1.00;0.73;;;;;;;;;;5095460;28;20056;-76
2021/05/09 08:39:06;;;;;;;4.13;0.93;;;;;;;;;;5094881;28;20065;-75
2021/05/09 08:41:40;;;;;;;1.83;0.88;;;;;;;;;;5095386;28;20028;-75
2021/05/09 08:44:10;;;;;;;1.85;0.88;;;;;;;;;;5095094;28;20059;-75
2021/05/09 08:46:37;;;;;;;1.70;1.05;;;;;;;;;;5095272;28;20039;-76
2021/05/09 08:49:04;;;;;;;2.33;1.20;;;;;;;;;;5095109;28;20122;-76
2021/05/09 08:51:31;;;;;;;4.18;1.20;;;;;;;;;;5071428;28;20040;-75
2021/05/09 08:53:56;;;;;;;2.70;1.08;;;;;;;;;;5075085;28;20086;-75
2021/05/09 08:56:24;;;;;;;1.45;0.90;;;;;;;;;;5073701;28;20032;-75
2021/05/09 08:58:50;;;;;;;1.90;1.13;;;;;;;;;;5074689;28;20036;-75
2021/05/09 09:01:15;;;;;;;2.08;0.80;;;;;;;;;;5093156;28;20028;-75
2021/05/09 09:03:40;;;;;;;1.20;0.82;;;;;;;;;;5094971;28;20039;-76
2021/05/09 09:06:10;;;;;;;4.10;1.25;;;;;;;;;;5095021;28;20504;-75
2021/05/09 09:08:52;;;;;;;4.45;1.08;;;;;;;;;;5094924;28;20047;-75
2021/05/09 09:11:27;;;;;;;2.13;1.13;;;;;;;;;;5094907;28;20024;-76
2021/05/09 09:14:12;;;;;;;4.10;1.10;;;;;;;;;;5094607;28;20046;-76
2021/05/09 09:16:38;;;;;;;;;;;;;;;;;;5094991;28;20091;-75
2021/05/09 09:19:13;;;;;;;1.10;1.00;;;;;;;;;;5093460;28;19921;-76
2021/05/09 09:21:40;;;;;;;4.55;1.15;;;;;;;;;;5094557;28;20039;-75
2021/05/09 09:24:08;;;;;;;4.30;1.27;;;;;;;;;;5094715;28;20119;-75
2021/05/09 09:26:42;;;;;;;1.50;0.77;;;;;;;;;;5094509;28;20064;-75
2021/05/09 09:29:22;;;;;;;4.10;1.13;;;;;;;;;;5094693;28;20556;-75
2021/05/09 09:31:53;;;;;;;1.55;1.00;;;;;;;;;;5094336;28;20511;-75
2021/05/09 09:34:18;;;;;;;4.05;1.20;;;;;;;;;;5093005;28;20050;-75
2021/05/09 09:36:45;;;;;;;1.67;0.90;;;;;;;;;;5094367;28;20525;-75
2021/05/09 09:39:10;;;;;;;2.47;1.42;;;;;;;;;;5093171;28;20101;-76
2021/05/09 09:41:49;;;;;;;4.82;1.60;;;;;;;;;;5094204;28;20412;-75
2021/05/09 09:44:17;;;;;;;2.13;1.20;;;;;;;;;;5094323;28;20035;-75
2021/05/09 09:46:51;;;;;;;1.42;1.00;;;;;;;;;;5094277;28;20032;-76
2021/05/09 09:49:32;;;;;;;1.23;0.93;;;;;;;;;;5093259;28;20545;-75
2021/05/09 09:52:02;;;;;;;3.75;1.10;;;;;;;;;;5093894;28;20028;-75
2021/05/09 09:54:36;;;;;;;7.15;1.58;;;;;;;;;;5091692;28;20505;-76
2021/05/09 09:57:06;;;;;;;1.65;1.08;;;;;;;;;;5092639;28;20028;-75
2021/05/09 09:59:32;;;;;;;3.30;1.55;;;;;;;;;;5093768;28;20130;-75
2021/05/09 10:01:58;;;;;;;1.83;1.20;;;;;;;;;;5092430;28;20028;-75
2021/05/09 10:04:26;;;;;;;2.33;1.30;;;;;;;;;;5093750;28;20036;-76
2021/05/09 10:06:52;;;;;;;2.47;1.00;;;;;;;;;;5093520;28;20366;-75
2021/05/09 10:09:17;;;;;;;5.13;1.40;;;;;;;;;;5092772;28;20039;-76
2021/05/09 10:11:43;;;;;;;1.48;1.02;;;;;;;;;;5093722;28;20038;-75
2021/05/09 10:14:08;;;;;;;3.17;1.10;;;;;;;;;;5092059;28;20032;-75
2021/05/09 10:16:39;;;;;;;3.50;1.00;;;;;;;;;;5093670;28;20028;-75
2021/05/09 10:19:08;;;;;;;3.95;1.20;;;;;;;;;;5093682;28;20036;-76
2021/05/09 10:21:35;;;;;;;3.35;1.38;;;;;;;;;;5093592;28;20034;-76
2021/05/09 10:24:11;;;;;;;1.77;1.20;;;;;;;;;;5092644;28;20040;-75
2021/05/09 10:26:59;;;;;;;2.22;1.23;;;;;;;;;;5093427;28;20036;-76
2021/05/09 10:29:45;;;;;;;2.03;1.10;;;;;;;;;;5093415;28;20085;-76
2021/05/09 10:32:19;;;;;;;;;;;;;;;;;;5092691;28;20118;-75
2021/05/09 10:34:51;;;;;;;3.95;1.40;;;;;;;;;;5093528;28;19912;-75
2021/05/09 10:37:35;;;;;;;2.42;1.10;;;;;;;;;;5093263;28;20039;-75
2021/05/09 10:40:34;;;;;;;1.92;1.00;;;;;;;;;;5093373;28;20036;-75
2021/05/09 10:43:07;;;;;;;2.65;1.08;;;;;;;;;;5091993;28;20071;-76
2021/05/09 10:45:36;;;;;;;2.30;1.48;;;;;;;;;;5094536;28;20118;-75
2021/05/09 10:50:54;;;;;;;3.13;1.20;;;;;;;;;;5093200;28;20032;-75
2021/05/09 10:53:32;;;;;;;3.70;1.17;;;;;;;;;;5092164;28;20478;-75
2021/05/09 10:55:58;;;;;;;1.30;1.17;;;;;;;;;;5092153;28;20119;-75
2021/05/09 10:58:48;;;;;;;2.70;1.20;;;;;;;;;;5093096;28;20039;-76
2021/05/09 11:01:20;;;;;;;6.22;1.10;;;;;;;;;;5093519;28;20028;-76
2021/05/09 11:03:52;;;;;;;2.92;1.17;;;;;;;;;;5097309;28;20115;-76
2021/05/09 11:06:18;;;;;;;2.50;1.00;;;;;;;;;;5097075;28;20032;-75
2021/05/09 11:08:53;;;;;;;4.50;1.17;;;;;;;;;;5095656;28;20139;-76
2021/05/09 11:11:20;;;;;;;7.68;1.42;;;;;;;;;;5094436;28;20423;-75
2021/05/09 11:16:36;;;;;;;6.22;1.17;;;;;;;;;;5095775;28;20089;-75
2021/05/09 11:19:13;;;;;;;3.78;1.00;;;;;;;;;;5095841;28;20043;-76
2021/05/09 11:21:47;;;;;;;3.00;1.20;;;;;;;;;;5096817;28;20124;-75
2021/05/09 11:24:19;;;;;;;2.40;1.10;;;;;;;;;;5097116;28;20051;-76
2021/05/09 11:26:46;;;;;;;2.42;0.80;;;;;;;;;;5096727;28;20040;-75
2021/05/09 11:29:17;;;;;;;1.27;0.82;;;;;;;;;;5097072;28;20024;-75
2021/05/09 11:31:46;;;;;;;3.67;1.13;;;;;;;;;;5096810;28;20505;-75
2021/05/09 11:34:13;;;;;;;2.65;0.95;;;;;;;;;;5096877;28;20031;-75
2021/05/09 11:36:40;;;;;;;4.65;1.30;;;;;;;;;;5096776;28;20112;-75
2021/05/09 11:39:16;;;;;;;5.20;0.75;;;;;;;;;;5096793;28;20054;-75
2021/05/09 11:42:15;;;;;;;3.20;1.27;;;;;;;;;;5094837;28;20051;-75
2021/05/09 11:44:58;;;;;;;1.98;0.98;;;;;;;;;;5096104;28;20051;-75
2021/05/09 11:47:31;;;;;;;2.83;0.98;;;;;;;;;;5095422;28;20035;-75
2021/05/09 11:49:58;;;;;;;1.30;1.00;;;;;;;;;;5096371;28;20084;-75
2021/05/09 11:52:29;;;;;;;4.03;1.15;;;;;;;;;;5096315;28;20046;-75
2021/05/09 11:54:58;;;;;;;3.13;1.30;;;;;;;;;;5096048;28;20429;-76
2021/05/09 11:57:25;;;;;;;5.10;1.00;;;;;;;;;;5096706;28;20386;-76
2021/05/09 11:59:51;;;;;;;2.58;1.20;;;;;;;;;;5096215;28;20028;-76
2021/05/09 12:02:18;;;;;;;2.15;0.90;;;;;;;;;;5095405;28;20458;-75
2021/05/09 12:04:57;;;;;;;0.90;0.82;;;;;;;;;;5095302;28;20047;-76
2021/05/09 12:07:28;;;;;;;3.80;1.20;;;;;;;;;;5094909;28;20405;-75
2021/05/09 12:09:57;;;;;;;2.15;1.20;;;;;;;;;;5095338;28;20038;-75
2021/05/09 12:12:23;;;;;;;2.13;0.93;;;;;;;;;;5095717;28;20054;-77
2021/05/09 12:14:52;;;;;;;1.58;1.25;;;;;;;;;;5094687;28;20036;-76
2021/05/09 12:17:26;;;;;;;0.95;0.80;;;;;;;;;;5095759;28;20485;-76
2021/05/09 12:19:53;;;;;;;3.20;1.35;;;;;;;;;;5096262;28;20048;-76
2021/05/09 12:22:19;;;;;;;1.10;0.98;;;;;;;;;;5095797;28;20035;-75
2021/05/09 12:24:56;;;;;;;1.05;0.68;;;;;;;;;;5095777;28;20035;-76
2021/05/09 12:27:23;;;;;;;3.08;1.10;;;;;;;;;;5095297;28;20039;-76
2021/05/09 12:29:54;;;;;;;6.68;1.08;;;;;;;;;;5094312;28;20039;-76
2021/05/09 12:32:21;;;;;;;5.35;1.15;;;;;;;;;;5095516;28;20043;-76
2021/05/09 12:35:10;;;;;;;1.90;1.20;;;;;;;;;;5094649;28;20043;-76
2021/05/09 12:37:42;;;;;;;3.58;1.23;;;;;;;;;;5094315;28;20043;-76
2021/05/09 12:40:20;;;;;;;3.13;1.00;;;;;;;;;;5095314;28;20031;-76
2021/05/09 12:42:59;;;;;;;3.45;1.27;;;;;;;;;;5094966;28;20047;-76
2021/05/09 12:45:38;;;;;;;5.95;1.30;;;;;;;;;;5095339;28;20485;-76
2021/05/09 12:48:09;;;;;;;6.75;1.35;;;;;;;;;;5095372;28;20056;-76
2021/05/09 12:50:45;;;;;;;5.50;1.10;;;;;;;;;;5095047;28;20110;-76
2021/05/09 12:53:10;;;;;;;1.52;1.15;;;;;;;;;;5093593;28;20870;-76
2021/05/09 12:55:36;;;;;;;6.20;1.58;;;;;;;;;;5093988;28;20036;-76
2021/05/09 12:58:10;;;;;;;2.45;1.08;;;;;;;;;;5093840;28;20077;-76
2021/05/09 13:00:36;;;;;;;1.95;1.10;;;;;;;;;;5095197;28;20036;-76
2021/05/09 13:03:01;;;;;;;2.05;0.80;;;;;;;;;;5068948;28;20099;-76
2021/05/09 13:05:27;;;;;;;3.30;1.05;;;;;;;;;;5053717;28;20115;-76
2021/05/09 13:07:53;;;;;;;4.10;1.27;;;;;;;;;;5054183;28;20035;-76
2021/05/09 13:10:21;;;;;;;5.88;1.17;;;;;;;;;;5054929;28;20041;-76
2021/05/09 13:12:50;;;;;;;3.28;1.10;;;;;;;;;;5053686;28;20029;-76
2021/05/09 13:15:16;;;;;;;5.50;1.15;;;;;;;;;;5054629;28;20069;-76
2021/05/09 13:17:42;;;;;;;4.95;1.52;;;;;;;;;;5054508;28;20431;-76
2021/05/09 13:20:09;;;;;;;4.30;1.23;;;;;;;;;;5054414;28;20040;-76
2021/05/09 13:22:35;;;;;;;4.47;0.93;;;;;;;;;;5054022;28;20037;-76
2021/05/09 13:25:00;;;;;;;2.47;1.42;;;;;;;;;;5053494;28;20031;-76
2021/05/09 13:27:32;;;;;;;5.50;1.38;;;;;;;;;;5054308;28;20048;-76
2021/05/09 13:30:03;;;;;;;2.72;1.05;;;;;;;;;;5085487;28;20397;-76
2021/05/09 13:32:29;;;;;;;3.50;1.10;;;;;;;;;;5093110;28;20538;-76
2021/05/09 13:34:54;;;;;;;2.15;1.33;;;;;;;;;;5094546;28;20044;-76
2021/05/09 13:37:20;;;;;;;3.13;1.40;;;;;;;;;;5094203;28;20060;-76
2021/05/09 13:39:45;;;;;;;3.85;1.60;;;;;;;;;;5093096;28;20089;-76
2021/05/09 13:42:11;;;;;;;5.55;1.17;;;;;;;;;;5093929;28;20032;-76
2021/05/09 13:44:36;;;;;;;1.95;1.25;;;;;;;;;;5094090;28;20039;-76
2021/05/09 13:47:02;;;;;;;1.63;1.00;;;;;;;;;;5093992;28;20040;-76
2021/05/09 13:49:27;;;;;;;4.45;1.20;;;;;;;;;;5092861;28;20116;-76
2021/05/09 13:51:52;;;;;;;3.60;1.25;;;;;;;;;;5094133;28;20070;-76
2021/05/09 13:54:18;;;;;;;5.57;1.17;;;;;;;;;;5093397;28;20032;-76
2021/05/09 13:56:43;;;;;;;2.47;1.08;;;;;;;;;;5093380;28;20066;-76
2021/05/09 13:59:09;;;;;;;2.97;1.08;;;;;;;;;;5094030;28;20493;-76
2021/05/09 14:01:35;;;;;;;3.55;1.30;;;;;;;;;;5093807;28;20035;-76
2021/05/09 14:04:01;;;;;;;3.53;1.00;;;;;;;;;;5093753;28;20478;-76
2021/05/09 14:06:27;;;;;;;5.80;1.58;;;;;;;;;;5093727;28;20035;-76
2021/05/09 14:08:53;;;;;;;3.45;1.27;;;;;;;;;;5091989;28;20093;-76
2021/05/09 14:11:19;;;;;;;2.95;1.10;;;;;;;;;;5093436;28;20044;-76
2021/05/09 14:13:45;;;;;;;6.22;1.30;;;;;;;;;;5093654;28;20034;-76
2021/05/09 14:16:11;;;;;;;2.55;0.98;;;;;;;;;;5093650;28;20039;-76
2021/05/09 14:18:36;;;;;;;2.58;0.90;;;;;;;;;;5092309;28;20529;-76
2021/05/09 14:21:02;;;;;;;4.18;1.10;;;;;;;;;;5093834;28;20071;-76
2021/05/09 14:23:28;;;;;;;1.35;1.05;;;;;;;;;;5092233;28;20118;-77
2021/05/09 14:25:53;;;;;;;3.10;1.10;;;;;;;;;;5092150;28;20043;-76
2021/05/09 14:28:18;;;;;;;2.33;1.20;;;;;;;;;;5092094;28;20039;-76
2021/05/09 14:30:44;;;;;;;3.92;1.23;;;;;;;;;;5092196;28;20044;-76
2021/05/09 14:33:09;;;;;;;3.80;0.95;;;;;;;;;;5093472;28;20036;-76
2021/05/09 14:35:35;;;;;;;3.92;1.23;;;;;;;;;;5093062;28;20036;-76
2021/05/09 14:38:04;;;;;;;3.28;1.20;;;;;;;;;;5093466;28;20114;-75
2021/05/09 14:40:31;;;;;;;5.93;0.98;;;;;;;;;;5093230;28;20039;-75
2021/05/09 14:42:56;;;;;;;2.17;1.20;;;;;;;;;;5090131;28;20078;-75
2021/05/09 14:45:22;;;;;;;1.75;1.10;;;;;;;;;;5093263;28;20040;-76
2021/05/09 14:47:48;;;;;;;3.78;1.38;;;;;;;;;;5091494;28;20050;-76
2021/05/09 14:50:14;;;;;;;3.97;1.30;;;;;;;;;;5093131;28;20040;-75
2021/05/09 14:52:40;;;;;;;3.08;1.00;;;;;;;;;;5093447;28;20028;-75